sensor_id;sensor_type;location;lat;lon;timestamp;P1;durP1;ratioP1;P2;durP2;ratioP2
2562;SDS011;1291;51.420;6.970;2023-05-10T00:00:04;10.65;;;9.55;;
2562;SDS011;1291;51.420;6.970;2023-05-10T00:02:29;11.07;;;8.55;;
2562;SDS011;1291;51.420;6.970;2023-05-10T00:05:01;11.38;;;10.18;;
2562;SDS011;1291;51.420;6.970;2023-05-10T00:07:26;9.68;;;8.68;;
2562;SDS011;1291;51.420;6.970;2023-05-10T00:09:52;10.45;;;8.90;;
2562;SDS011;1291;51.420;6.970;2023-05-10T00:12:17;9.70;;;8.70;;
2562;SDS011;1291;51.420;6.970;2023-05-10T00:14:42;10.10;;;8.20;;
2562;SDS011;1291;51.420;6.970;2023-05-10T00:17:08;13.30;;;9.63;;
2562;SDS011;1291;51.420;6.970;2023-05-10T00:19:33;12.50;;;9.27;;
2562;SDS011;1291;51.420;6.970;2023-05-10T00:21:58;11.57;;;9.30;;
2562;SDS011;1291;51.420;6.970;2023-05-10T00:24:24;11.15;;;10.05;;
2562;SDS011;1291;51.420;6.970;2023-05-10T00:26:50;11.43;;;9.63;;
2562;SDS011;1291;51.420;6.970;2023-05-10T00:29:15;9.38;;;8.20;;
2562;SDS011;1291;51.420;6.970;2023-05-10T00:31:40;10.18;;;8.63;;
2562;SDS011;1291;51.420;6.970;2023-05-10T00:34:06;9.82;;;8.65;;
2562;SDS011;1291;51.420;6.970;2023-05-10T00:36:31;10.30;;;8.55;;
2562;SDS011;1291;51.420;6.970;2023-05-10T00:38:56;11.70;;;9.18;;
2562;SDS011;1291;51.420;6.970;2023-05-10T00:41:22;10.20;;;9.10;;
2562;SDS011;1291;51.420;6.970;2023-05-10T00:43:53;9.68;;;8.55;;
2562;SDS011;1291;51.420;6.970;2023-05-10T00:46:19;9.35;;;8.25;;
2562;SDS011;1291;51.420;6.970;2023-05-10T00:48:44;9.55;;;8.55;;
2562;SDS011;1291;51.420;6.970;2023-05-10T00:51:10;9.77;;;8.25;;
2562;SDS011;1291;51.420;6.970;2023-05-10T00:53:35;11.60;;;8.75;;
2562;SDS011;1291;51.420;6.970;2023-05-10T00:56:01;10.05;;;9.02;;
2562;SDS011;1291;51.420;6.970;2023-05-10T00:58:30;11.40;;;10.20;;
2562;SDS011;1291;51.420;6.970;2023-05-10T01:00:56;10.95;;;9.65;;
2562;SDS011;1291;51.420;6.970;2023-05-10T01:03:22;12.27;;;10.23;;
2562;SDS011;1291;51.420;6.970;2023-05-10T01:05:48;11.27;;;9.45;;
2562;SDS011;1291;51.420;6.970;2023-05-10T01:08:13;12.20;;;10.55;;
2562;SDS011;1291;51.420;6.970;2023-05-10T01:10:39;13.57;;;10.85;;
2562;SDS011;1291;51.420;6.970;2023-05-10T01:13:05;12.40;;;10.65;;
2562;SDS011;1291;51.420;6.970;2023-05-10T01:15:30;13.40;;;10.60;;
2562;SDS011;1291;51.420;6.970;2023-05-10T01:17:56;13.27;;;11.15;;
2562;SDS011;1291;51.420;6.970;2023-05-10T01:20:22;15.57;;;12.30;;
2562;SDS011;1291;51.420;6.970;2023-05-10T01:25:36;13.52;;;10.85;;
2562;SDS011;1291;51.420;6.970;2023-05-10T01:28:17;15.20;;;12.43;;
2562;SDS011;1291;51.420;6.970;2023-05-10T01:34:12;15.07;;;12.32;;
2562;SDS011;1291;51.420;6.970;2023-05-10T01:39:29;15.57;;;12.75;;
2562;SDS011;1291;51.420;6.970;2023-05-10T01:42:11;16.02;;;12.60;;
2562;SDS011;1291;51.420;6.970;2023-05-10T01:47:37;13.23;;;11.68;;
2562;SDS011;1291;51.420;6.970;2023-05-10T01:50:06;15.57;;;12.18;;
2562;SDS011;1291;51.420;6.970;2023-05-10T01:52:42;15.32;;;12.32;;
2562;SDS011;1291;51.420;6.970;2023-05-10T01:55:11;15.65;;;13.40;;
2562;SDS011;1291;51.420;6.970;2023-05-10T01:57:40;14.85;;;13.18;;
2562;SDS011;1291;51.420;6.970;2023-05-10T02:00:08;15.77;;;14.07;;
2562;SDS011;1291;51.420;6.970;2023-05-10T02:02:36;19.27;;;14.80;;
2562;SDS011;1291;51.420;6.970;2023-05-10T02:05:05;16.33;;;13.77;;
2562;SDS011;1291;51.420;6.970;2023-05-10T02:07:33;18.23;;;13.95;;
2562;SDS011;1291;51.420;6.970;2023-05-10T02:10:00;16.55;;;13.95;;
2562;SDS011;1291;51.420;6.970;2023-05-10T02:12:27;15.43;;;12.93;;
2562;SDS011;1291;51.420;6.970;2023-05-10T02:14:54;15.18;;;13.45;;
2562;SDS011;1291;51.420;6.970;2023-05-10T02:17:20;14.65;;;12.60;;
2562;SDS011;1291;51.420;6.970;2023-05-10T02:19:46;15.60;;;12.88;;
2562;SDS011;1291;51.420;6.970;2023-05-10T02:22:12;15.70;;;12.75;;
2562;SDS011;1291;51.420;6.970;2023-05-10T02:24:40;15.65;;;12.65;;
2562;SDS011;1291;51.420;6.970;2023-05-10T02:27:06;16.05;;;13.23;;
2562;SDS011;1291;51.420;6.970;2023-05-10T02:29:34;15.45;;;13.32;;
2562;SDS011;1291;51.420;6.970;2023-05-10T02:32:01;16.13;;;12.52;;
2562;SDS011;1291;51.420;6.970;2023-05-10T02:34:27;18.70;;;13.75;;
2562;SDS011;1291;51.420;6.970;2023-05-10T02:36:55;16.52;;;12.77;;
2562;SDS011;1291;51.420;6.970;2023-05-10T02:39:21;16.77;;;12.48;;
2562;SDS011;1291;51.420;6.970;2023-05-10T02:41:49;13.90;;;11.07;;
2562;SDS011;1291;51.420;6.970;2023-05-10T02:44:19;14.73;;;11.77;;
2562;SDS011;1291;51.420;6.970;2023-05-10T02:46:47;13.85;;;11.35;;
2562;SDS011;1291;51.420;6.970;2023-05-10T02:49:13;16.88;;;12.18;;
2562;SDS011;1291;51.420;6.970;2023-05-10T02:51:40;15.45;;;11.93;;
2562;SDS011;1291;51.420;6.970;2023-05-10T02:54:15;14.05;;;11.70;;
2562;SDS011;1291;51.420;6.970;2023-05-10T02:56:47;14.85;;;11.50;;
2562;SDS011;1291;51.420;6.970;2023-05-10T02:59:15;15.20;;;12.48;;
2562;SDS011;1291;51.420;6.970;2023-05-10T03:01:41;16.30;;;12.10;;
2562;SDS011;1291;51.420;6.970;2023-05-10T03:04:06;14.38;;;11.40;;
2562;SDS011;1291;51.420;6.970;2023-05-10T03:06:32;15.98;;;12.25;;
2562;SDS011;1291;51.420;6.970;2023-05-10T03:08:57;14.52;;;12.07;;
2562;SDS011;1291;51.420;6.970;2023-05-10T03:17:17;18.10;;;13.38;;
2562;SDS011;1291;51.420;6.970;2023-05-10T03:22:31;16.42;;;13.63;;
2562;SDS011;1291;51.420;6.970;2023-05-10T03:25:01;16.67;;;13.50;;
2562;SDS011;1291;51.420;6.970;2023-05-10T03:27:31;18.08;;;13.80;;
2562;SDS011;1291;51.420;6.970;2023-05-10T03:29:57;18.52;;;13.68;;
2562;SDS011;1291;51.420;6.970;2023-05-10T03:32:22;18.48;;;14.20;;
2562;SDS011;1291;51.420;6.970;2023-05-10T03:34:48;19.33;;;14.93;;
2562;SDS011;1291;51.420;6.970;2023-05-10T03:37:13;17.27;;;13.77;;
2562;SDS011;1291;51.420;6.970;2023-05-10T03:39:39;17.75;;;14.70;;
2562;SDS011;1291;51.420;6.970;2023-05-10T03:42:04;18.80;;;14.98;;
2562;SDS011;1291;51.420;6.970;2023-05-10T03:44:29;19.10;;;14.45;;
2562;SDS011;1291;51.420;6.970;2023-05-10T03:46:55;20.58;;;16.27;;
2562;SDS011;1291;51.420;6.970;2023-05-10T03:49:21;21.13;;;14.73;;
2562;SDS011;1291;51.420;6.970;2023-05-10T03:51:47;20.90;;;15.18;;
2562;SDS011;1291;51.420;6.970;2023-05-10T03:54:12;22.73;;;16.85;;
2562;SDS011;1291;51.420;6.970;2023-05-10T03:56:38;21.17;;;15.25;;
2562;SDS011;1291;51.420;6.970;2023-05-10T03:59:03;24.65;;;17.52;;
2562;SDS011;1291;51.420;6.970;2023-05-10T04:01:32;22.05;;;16.52;;
2562;SDS011;1291;51.420;6.970;2023-05-10T04:03:58;22.52;;;18.08;;
2562;SDS011;1291;51.420;6.970;2023-05-10T04:06:23;23.90;;;17.63;;
2562;SDS011;1291;51.420;6.970;2023-05-10T04:08:48;23.92;;;17.63;;
2562;SDS011;1291;51.420;6.970;2023-05-10T04:11:14;26.50;;;17.85;;
2562;SDS011;1291;51.420;6.970;2023-05-10T04:13:39;27.85;;;18.38;;
2562;SDS011;1291;51.420;6.970;2023-05-10T04:16:05;23.38;;;18.10;;
2562;SDS011;1291;51.420;6.970;2023-05-10T04:18:30;26.33;;;19.20;;
2562;SDS011;1291;51.420;6.970;2023-05-10T04:20:56;26.23;;;19.55;;
2562;SDS011;1291;51.420;6.970;2023-05-10T04:23:22;28.20;;;19.67;;
2562;SDS011;1291;51.420;6.970;2023-05-10T04:25:47;26.77;;;19.58;;
2562;SDS011;1291;51.420;6.970;2023-05-10T04:28:13;28.95;;;21.00;;
2562;SDS011;1291;51.420;6.970;2023-05-10T04:30:38;31.05;;;20.08;;
2562;SDS011;1291;51.420;6.970;2023-05-10T04:33:03;25.98;;;19.70;;
2562;SDS011;1291;51.420;6.970;2023-05-10T04:35:29;25.52;;;19.23;;
2562;SDS011;1291;51.420;6.970;2023-05-10T04:37:54;29.17;;;21.90;;
2562;SDS011;1291;51.420;6.970;2023-05-10T04:40:20;33.00;;;22.67;;
2562;SDS011;1291;51.420;6.970;2023-05-10T04:42:45;29.73;;;21.38;;
2562;SDS011;1291;51.420;6.970;2023-05-10T04:45:11;27.80;;;20.50;;
2562;SDS011;1291;51.420;6.970;2023-05-10T04:47:37;31.27;;;20.67;;
2562;SDS011;1291;51.420;6.970;2023-05-10T04:50:02;29.10;;;20.70;;
2562;SDS011;1291;51.420;6.970;2023-05-10T04:52:29;28.08;;;20.38;;
2562;SDS011;1291;51.420;6.970;2023-05-10T04:54:57;29.25;;;20.45;;
2562;SDS011;1291;51.420;6.970;2023-05-10T04:57:22;30.20;;;20.45;;
2562;SDS011;1291;51.420;6.970;2023-05-10T04:59:48;28.15;;;20.70;;
2562;SDS011;1291;51.420;6.970;2023-05-10T05:02:16;30.25;;;21.33;;
2562;SDS011;1291;51.420;6.970;2023-05-10T05:04:44;29.95;;;21.80;;
2562;SDS011;1291;51.420;6.970;2023-05-10T05:07:09;30.40;;;22.02;;
2562;SDS011;1291;51.420;6.970;2023-05-10T05:09:35;30.85;;;22.63;;
2562;SDS011;1291;51.420;6.970;2023-05-10T05:12:00;29.10;;;22.17;;
2562;SDS011;1291;51.420;6.970;2023-05-10T05:14:25;31.58;;;22.77;;
2562;SDS011;1291;51.420;6.970;2023-05-10T05:16:51;34.83;;;24.08;;
2562;SDS011;1291;51.420;6.970;2023-05-10T05:19:17;35.20;;;23.58;;
2562;SDS011;1291;51.420;6.970;2023-05-10T05:21:42;33.65;;;24.55;;
2562;SDS011;1291;51.420;6.970;2023-05-10T05:24:08;35.10;;;23.95;;
2562;SDS011;1291;51.420;6.970;2023-05-10T05:26:33;36.70;;;24.92;;
2562;SDS011;1291;51.420;6.970;2023-05-10T05:28:59;33.92;;;24.35;;
2562;SDS011;1291;51.420;6.970;2023-05-10T05:31:24;31.75;;;23.73;;
2562;SDS011;1291;51.420;6.970;2023-05-10T05:33:49;35.17;;;23.35;;
2562;SDS011;1291;51.420;6.970;2023-05-10T05:36:15;34.25;;;24.02;;
2562;SDS011;1291;51.420;6.970;2023-05-10T05:38:40;32.20;;;23.17;;
2562;SDS011;1291;51.420;6.970;2023-05-10T05:41:05;32.47;;;24.48;;
2562;SDS011;1291;51.420;6.970;2023-05-10T05:43:31;32.92;;;23.25;;
2562;SDS011;1291;51.420;6.970;2023-05-10T05:45:56;33.40;;;24.63;;
2562;SDS011;1291;51.420;6.970;2023-05-10T05:48:22;40.70;;;25.13;;
2562;SDS011;1291;51.420;6.970;2023-05-10T05:50:48;37.55;;;24.98;;
2562;SDS011;1291;51.420;6.970;2023-05-10T05:53:13;35.60;;;25.17;;
2562;SDS011;1291;51.420;6.970;2023-05-10T05:55:39;37.20;;;27.67;;
2562;SDS011;1291;51.420;6.970;2023-05-10T05:58:04;34.83;;;26.00;;
2562;SDS011;1291;51.420;6.970;2023-05-10T06:00:29;33.22;;;25.27;;
2562;SDS011;1291;51.420;6.970;2023-05-10T06:02:54;35.17;;;25.15;;
2562;SDS011;1291;51.420;6.970;2023-05-10T06:05:20;37.65;;;23.52;;
2562;SDS011;1291;51.420;6.970;2023-05-10T06:07:46;35.75;;;23.38;;
2562;SDS011;1291;51.420;6.970;2023-05-10T06:10:11;32.78;;;23.92;;
2562;SDS011;1291;51.420;6.970;2023-05-10T06:12:37;31.15;;;22.85;;
2562;SDS011;1291;51.420;6.970;2023-05-10T06:15:03;38.40;;;23.40;;
2562;SDS011;1291;51.420;6.970;2023-05-10T06:17:28;32.47;;;24.38;;
2562;SDS011;1291;51.420;6.970;2023-05-10T06:19:54;32.70;;;24.30;;
2562;SDS011;1291;51.420;6.970;2023-05-10T06:22:20;33.35;;;25.33;;
2562;SDS011;1291;51.420;6.970;2023-05-10T06:24:47;34.08;;;24.02;;
2562;SDS011;1291;51.420;6.970;2023-05-10T06:27:12;35.03;;;24.30;;
2562;SDS011;1291;51.420;6.970;2023-05-10T06:29:39;36.97;;;23.92;;
2562;SDS011;1291;51.420;6.970;2023-05-10T06:32:04;39.35;;;25.33;;
2562;SDS011;1291;51.420;6.970;2023-05-10T06:34:30;37.25;;;24.05;;
2562;SDS011;1291;51.420;6.970;2023-05-10T06:36:55;36.03;;;23.80;;
2562;SDS011;1291;51.420;6.970;2023-05-10T06:39:20;43.42;;;24.88;;
2562;SDS011;1291;51.420;6.970;2023-05-10T06:41:46;40.08;;;25.58;;
2562;SDS011;1291;51.420;6.970;2023-05-10T06:44:11;40.45;;;25.23;;
2562;SDS011;1291;51.420;6.970;2023-05-10T06:46:37;41.53;;;26.52;;
2562;SDS011;1291;51.420;6.970;2023-05-10T06:49:03;41.83;;;26.90;;
2562;SDS011;1291;51.420;6.970;2023-05-10T06:51:29;43.60;;;26.20;;
2562;SDS011;1291;51.420;6.970;2023-05-10T06:53:54;47.50;;;26.80;;
2562;SDS011;1291;51.420;6.970;2023-05-10T06:56:20;45.50;;;27.33;;
2562;SDS011;1291;51.420;6.970;2023-05-10T06:58:46;44.35;;;27.63;;
2562;SDS011;1291;51.420;6.970;2023-05-10T07:01:11;49.17;;;28.85;;
2562;SDS011;1291;51.420;6.970;2023-05-10T07:03:37;50.08;;;28.40;;
2562;SDS011;1291;51.420;6.970;2023-05-10T07:06:02;42.83;;;26.95;;
2562;SDS011;1291;51.420;6.970;2023-05-10T07:08:29;46.10;;;28.17;;
2562;SDS011;1291;51.420;6.970;2023-05-10T07:11:04;50.95;;;28.80;;
2562;SDS011;1291;51.420;6.970;2023-05-10T07:13:32;49.40;;;29.70;;
2562;SDS011;1291;51.420;6.970;2023-05-10T07:15:58;50.70;;;28.25;;
2562;SDS011;1291;51.420;6.970;2023-05-10T07:18:24;47.00;;;28.20;;
2562;SDS011;1291;51.420;6.970;2023-05-10T07:20:50;48.65;;;28.00;;
2562;SDS011;1291;51.420;6.970;2023-05-10T07:23:16;44.60;;;27.30;;
2562;SDS011;1291;51.420;6.970;2023-05-10T07:25:44;44.65;;;27.75;;
2562;SDS011;1291;51.420;6.970;2023-05-10T07:28:15;44.55;;;28.00;;
2562;SDS011;1291;51.420;6.970;2023-05-10T07:30:44;44.05;;;27.92;;
2562;SDS011;1291;51.420;6.970;2023-05-10T07:33:10;49.42;;;27.98;;
2562;SDS011;1291;51.420;6.970;2023-05-10T07:35:37;44.03;;;27.40;;
2562;SDS011;1291;51.420;6.970;2023-05-10T07:38:02;42.53;;;27.65;;
2562;SDS011;1291;51.420;6.970;2023-05-10T07:40:28;40.67;;;25.73;;
2562;SDS011;1291;51.420;6.970;2023-05-10T07:42:53;46.28;;;27.70;;
2562;SDS011;1291;51.420;6.970;2023-05-10T07:45:19;39.80;;;26.40;;
2562;SDS011;1291;51.420;6.970;2023-05-10T07:47:44;44.88;;;26.85;;
2562;SDS011;1291;51.420;6.970;2023-05-10T07:50:10;43.55;;;26.08;;
2562;SDS011;1291;51.420;6.970;2023-05-10T07:52:35;40.40;;;24.48;;
2562;SDS011;1291;51.420;6.970;2023-05-10T07:55:00;46.40;;;26.58;;
2562;SDS011;1291;51.420;6.970;2023-05-10T07:57:25;40.38;;;26.40;;
2562;SDS011;1291;51.420;6.970;2023-05-10T07:59:51;42.05;;;24.95;;
2562;SDS011;1291;51.420;6.970;2023-05-10T08:02:16;39.83;;;24.27;;
2562;SDS011;1291;51.420;6.970;2023-05-10T08:04:41;33.88;;;22.17;;
2562;SDS011;1291;51.420;6.970;2023-05-10T08:07:09;39.67;;;20.50;;
2562;SDS011;1291;51.420;6.970;2023-05-10T08:09:35;33.92;;;20.35;;
2562;SDS011;1291;51.420;6.970;2023-05-10T08:12:00;31.70;;;19.77;;
2562;SDS011;1291;51.420;6.970;2023-05-10T08:14:27;33.95;;;20.05;;
2562;SDS011;1291;51.420;6.970;2023-05-10T08:16:54;35.92;;;19.27;;
2562;SDS011;1291;51.420;6.970;2023-05-10T08:19:19;32.45;;;19.40;;
2562;SDS011;1291;51.420;6.970;2023-05-10T08:21:46;29.38;;;20.27;;
2562;SDS011;1291;51.420;6.970;2023-05-10T08:24:11;32.05;;;20.30;;
2562;SDS011;1291;51.420;6.970;2023-05-10T08:26:37;30.40;;;19.40;;
2562;SDS011;1291;51.420;6.970;2023-05-10T08:29:02;31.40;;;18.05;;
2562;SDS011;1291;51.420;6.970;2023-05-10T08:31:27;32.22;;;20.08;;
2562;SDS011;1291;51.420;6.970;2023-05-10T08:33:53;30.70;;;20.10;;
2562;SDS011;1291;51.420;6.970;2023-05-10T08:36:18;27.30;;;18.48;;
2562;SDS011;1291;51.420;6.970;2023-05-10T08:38:47;26.90;;;17.38;;
2562;SDS011;1291;51.420;6.970;2023-05-10T08:41:14;28.08;;;17.42;;
2562;SDS011;1291;51.420;6.970;2023-05-10T08:43:39;25.23;;;16.70;;
2562;SDS011;1291;51.420;6.970;2023-05-10T08:46:11;25.58;;;17.33;;
2562;SDS011;1291;51.420;6.970;2023-05-10T08:48:46;24.90;;;16.73;;
2562;SDS011;1291;51.420;6.970;2023-05-10T08:51:13;29.40;;;17.48;;
2562;SDS011;1291;51.420;6.970;2023-05-10T08:53:40;31.48;;;18.92;;
2562;SDS011;1291;51.420;6.970;2023-05-10T08:56:05;32.47;;;20.50;;
2562;SDS011;1291;51.420;6.970;2023-05-10T08:58:31;32.35;;;18.88;;
2562;SDS011;1291;51.420;6.970;2023-05-10T09:00:56;34.30;;;20.02;;
2562;SDS011;1291;51.420;6.970;2023-05-10T09:03:25;37.65;;;21.80;;
2562;SDS011;1291;51.420;6.970;2023-05-10T09:05:51;35.05;;;20.98;;
2562;SDS011;1291;51.420;6.970;2023-05-10T09:08:16;43.35;;;22.38;;
2562;SDS011;1291;51.420;6.970;2023-05-10T09:10:45;32.65;;;20.10;;
2562;SDS011;1291;51.420;6.970;2023-05-10T09:13:12;34.33;;;21.92;;
2562;SDS011;1291;51.420;6.970;2023-05-10T09:15:40;32.20;;;21.85;;
2562;SDS011;1291;51.420;6.970;2023-05-10T09:18:05;40.38;;;23.80;;
2562;SDS011;1291;51.420;6.970;2023-05-10T09:20:30;36.95;;;22.42;;
2562;SDS011;1291;51.420;6.970;2023-05-10T09:22:56;41.33;;;23.65;;
2562;SDS011;1291;51.420;6.970;2023-05-10T09:25:21;37.00;;;23.33;;
2562;SDS011;1291;51.420;6.970;2023-05-10T09:27:47;36.72;;;23.50;;
2562;SDS011;1291;51.420;6.970;2023-05-10T09:30:23;37.92;;;23.33;;
2562;SDS011;1291;51.420;6.970;2023-05-10T09:32:51;36.63;;;22.23;;
2562;SDS011;1291;51.420;6.970;2023-05-10T09:35:22;33.08;;;21.70;;
2562;SDS011;1291;51.420;6.970;2023-05-10T09:37:55;31.75;;;20.05;;
2562;SDS011;1291;51.420;6.970;2023-05-10T09:40:22;38.90;;;21.98;;
2562;SDS011;1291;51.420;6.970;2023-05-10T09:42:56;34.45;;;20.85;;
2562;SDS011;1291;51.420;6.970;2023-05-10T09:45:24;32.85;;;20.85;;
2562;SDS011;1291;51.420;6.970;2023-05-10T09:47:52;29.77;;;19.90;;
2562;SDS011;1291;51.420;6.970;2023-05-10T09:50:18;31.88;;;20.73;;
2562;SDS011;1291;51.420;6.970;2023-05-10T09:55:23;26.52;;;18.35;;
2562;SDS011;1291;51.420;6.970;2023-05-10T09:57:58;31.25;;;18.38;;
2562;SDS011;1291;51.420;6.970;2023-05-10T10:00:24;28.02;;;18.08;;
2562;SDS011;1291;51.420;6.970;2023-05-10T10:02:56;24.75;;;18.10;;
2562;SDS011;1291;51.420;6.970;2023-05-10T10:05:33;24.70;;;17.10;;
2562;SDS011;1291;51.420;6.970;2023-05-10T10:08:00;23.95;;;18.20;;
2562;SDS011;1291;51.420;6.970;2023-05-10T10:10:27;24.92;;;17.75;;
2562;SDS011;1291;51.420;6.970;2023-05-10T10:12:56;27.15;;;17.23;;
2562;SDS011;1291;51.420;6.970;2023-05-10T10:15:22;26.63;;;17.85;;
2562;SDS011;1291;51.420;6.970;2023-05-10T10:17:49;26.95;;;15.85;;
2562;SDS011;1291;51.420;6.970;2023-05-10T10:20:15;24.27;;;16.50;;
2562;SDS011;1291;51.420;6.970;2023-05-10T10:22:41;21.25;;;15.70;;
2562;SDS011;1291;51.420;6.970;2023-05-10T10:25:09;22.73;;;16.52;;
2562;SDS011;1291;51.420;6.970;2023-05-10T10:30:35;22.05;;;15.18;;
2562;SDS011;1291;51.420;6.970;2023-05-10T10:33:12;22.58;;;15.65;;
2562;SDS011;1291;51.420;6.970;2023-05-10T10:36:00;21.17;;;15.23;;
2562;SDS011;1291;51.420;6.970;2023-05-10T10:41:27;21.83;;;16.40;;
2562;SDS011;1291;51.420;6.970;2023-05-10T10:44:22;20.65;;;14.50;;
2562;SDS011;1291;51.420;6.970;2023-05-10T10:54:56;21.38;;;15.07;;
2562;SDS011;1291;51.420;6.970;2023-05-10T10:57:32;18.52;;;14.13;;
2562;SDS011;1291;51.420;6.970;2023-05-10T11:00:28;22.80;;;15.27;;
2562;SDS011;1291;51.420;6.970;2023-05-10T11:03:09;19.88;;;14.20;;
2562;SDS011;1291;51.420;6.970;2023-05-10T11:05:51;18.27;;;14.20;;
2562;SDS011;1291;51.420;6.970;2023-05-10T11:08:33;21.05;;;14.07;;
2562;SDS011;1291;51.420;6.970;2023-05-10T11:13:37;19.65;;;15.10;;
2562;SDS011;1291;51.420;6.970;2023-05-10T11:16:14;17.20;;;13.88;;
2562;SDS011;1291;51.420;6.970;2023-05-10T11:18:53;22.25;;;15.20;;
2562;SDS011;1291;51.420;6.970;2023-05-10T11:21:19;19.17;;;15.55;;
2562;SDS011;1291;51.420;6.970;2023-05-10T11:26:12;20.13;;;15.02;;
2562;SDS011;1291;51.420;6.970;2023-05-10T11:28:45;20.50;;;14.27;;
2562;SDS011;1291;51.420;6.970;2023-05-10T11:31:14;22.65;;;16.05;;
2562;SDS011;1291;51.420;6.970;2023-05-10T11:33:51;20.58;;;15.20;;
2562;SDS011;1291;51.420;6.970;2023-05-10T11:36:19;20.15;;;15.82;;
2562;SDS011;1291;51.420;6.970;2023-05-10T11:38:46;21.77;;;15.82;;
2562;SDS011;1291;51.420;6.970;2023-05-10T11:41:12;20.27;;;15.20;;
2562;SDS011;1291;51.420;6.970;2023-05-10T11:43:38;19.48;;;15.25;;
2562;SDS011;1291;51.420;6.970;2023-05-10T11:46:09;20.70;;;15.27;;
2562;SDS011;1291;51.420;6.970;2023-05-10T11:48:39;22.15;;;15.50;;
2562;SDS011;1291;51.420;6.970;2023-05-10T11:51:08;20.33;;;15.18;;
2562;SDS011;1291;51.420;6.970;2023-05-10T11:53:34;18.70;;;14.65;;
2562;SDS011;1291;51.420;6.970;2023-05-10T11:56:09;19.77;;;14.48;;
2562;SDS011;1291;51.420;6.970;2023-05-10T11:58:36;19.02;;;14.57;;
2562;SDS011;1291;51.420;6.970;2023-05-10T12:01:03;19.52;;;14.07;;
2562;SDS011;1291;51.420;6.970;2023-05-10T12:03:30;22.85;;;13.93;;
2562;SDS011;1291;51.420;6.970;2023-05-10T12:05:56;21.30;;;13.85;;
2562;SDS011;1291;51.420;6.970;2023-05-10T12:08:23;18.67;;;13.10;;
2562;SDS011;1291;51.420;6.970;2023-05-10T12:10:52;16.45;;;12.90;;
2562;SDS011;1291;51.420;6.970;2023-05-10T12:13:18;16.05;;;12.20;;
2562;SDS011;1291;51.420;6.970;2023-05-10T12:15:45;19.27;;;12.55;;
2562;SDS011;1291;51.420;6.970;2023-05-10T12:18:11;16.75;;;12.75;;
2562;SDS011;1291;51.420;6.970;2023-05-10T12:20:38;17.23;;;13.00;;
2562;SDS011;1291;51.420;6.970;2023-05-10T12:23:04;16.05;;;12.57;;
2562;SDS011;1291;51.420;6.970;2023-05-10T12:25:31;16.88;;;12.15;;
2562;SDS011;1291;51.420;6.970;2023-05-10T12:28:04;16.50;;;12.27;;
2562;SDS011;1291;51.420;6.970;2023-05-10T12:30:34;13.55;;;11.68;;
2562;SDS011;1291;51.420;6.970;2023-05-10T12:33:11;13.10;;;9.93;;
2562;SDS011;1291;51.420;6.970;2023-05-10T12:35:43;11.18;;;9.13;;
2562;SDS011;1291;51.420;6.970;2023-05-10T12:38:27;10.55;;;8.98;;
2562;SDS011;1291;51.420;6.970;2023-05-10T12:40:55;10.20;;;7.93;;
2562;SDS011;1291;51.420;6.970;2023-05-10T12:43:24;9.23;;;7.90;;
2562;SDS011;1291;51.420;6.970;2023-05-10T12:45:50;9.15;;;7.80;;
2562;SDS011;1291;51.420;6.970;2023-05-10T12:48:15;12.90;;;8.30;;
2562;SDS011;1291;51.420;6.970;2023-05-10T12:50:41;9.02;;;7.38;;
2562;SDS011;1291;51.420;6.970;2023-05-10T12:53:06;11.30;;;8.10;;
2562;SDS011;1291;51.420;6.970;2023-05-10T12:55:31;11.73;;;7.60;;
2562;SDS011;1291;51.420;6.970;2023-05-10T12:57:57;14.50;;;8.07;;
2562;SDS011;1291;51.420;6.970;2023-05-10T13:00:22;9.57;;;7.40;;
2562;SDS011;1291;51.420;6.970;2023-05-10T13:02:47;8.05;;;7.13;;
2562;SDS011;1291;51.420;6.970;2023-05-10T13:05:13;7.50;;;6.57;;
2562;SDS011;1291;51.420;6.970;2023-05-10T13:07:41;6.57;;;5.97;;
2562;SDS011;1291;51.420;6.970;2023-05-10T13:10:08;7.40;;;6.65;;
2562;SDS011;1291;51.420;6.970;2023-05-10T13:12:34;9.75;;;6.10;;
2562;SDS011;1291;51.420;6.970;2023-05-10T13:15:00;11.48;;;6.00;;
2562;SDS011;1291;51.420;6.970;2023-05-10T13:17:25;8.23;;;6.28;;
2562;SDS011;1291;51.420;6.970;2023-05-10T13:19:53;8.18;;;7.03;;
2562;SDS011;1291;51.420;6.970;2023-05-10T13:22:19;7.22;;;6.30;;
2562;SDS011;1291;51.420;6.970;2023-05-10T13:24:44;9.23;;;6.93;;
2562;SDS011;1291;51.420;6.970;2023-05-10T13:27:10;10.90;;;8.13;;
2562;SDS011;1291;51.420;6.970;2023-05-10T13:29:35;8.77;;;7.03;;
2562;SDS011;1291;51.420;6.970;2023-05-10T13:32:00;9.95;;;8.18;;
2562;SDS011;1291;51.420;6.970;2023-05-10T13:34:26;10.82;;;8.27;;
2562;SDS011;1291;51.420;6.970;2023-05-10T13:36:52;8.75;;;7.85;;
2562;SDS011;1291;51.420;6.970;2023-05-10T13:39:18;9.10;;;6.65;;
2562;SDS011;1291;51.420;6.970;2023-05-10T13:41:44;9.52;;;7.72;;
2562;SDS011;1291;51.420;6.970;2023-05-10T13:44:11;8.07;;;6.10;;
2562;SDS011;1291;51.420;6.970;2023-05-10T13:46:38;9.80;;;7.25;;
2562;SDS011;1291;51.420;6.970;2023-05-10T13:49:03;6.65;;;5.80;;
2562;SDS011;1291;51.420;6.970;2023-05-10T13:51:29;11.13;;;6.25;;
2562;SDS011;1291;51.420;6.970;2023-05-10T13:53:54;6.10;;;5.55;;
2562;SDS011;1291;51.420;6.970;2023-05-10T13:56:19;7.97;;;6.18;;
2562;SDS011;1291;51.420;6.970;2023-05-10T13:58:45;6.82;;;5.05;;
2562;SDS011;1291;51.420;6.970;2023-05-10T14:01:13;6.55;;;5.40;;
2562;SDS011;1291;51.420;6.970;2023-05-10T14:03:38;7.82;;;5.72;;
2562;SDS011;1291;51.420;6.970;2023-05-10T14:06:07;7.35;;;5.00;;
2562;SDS011;1291;51.420;6.970;2023-05-10T14:08:33;6.55;;;5.35;;
2562;SDS011;1291;51.420;6.970;2023-05-10T14:10:59;8.13;;;6.18;;
2562;SDS011;1291;51.420;6.970;2023-05-10T14:13:24;10.23;;;7.80;;
2562;SDS011;1291;51.420;6.970;2023-05-10T14:15:50;10.73;;;8.02;;
2562;SDS011;1291;51.420;6.970;2023-05-10T14:18:16;9.20;;;7.80;;
2562;SDS011;1291;51.420;6.970;2023-05-10T14:20:41;8.50;;;7.55;;
2562;SDS011;1291;51.420;6.970;2023-05-10T14:23:06;8.95;;;8.02;;
2562;SDS011;1291;51.420;6.970;2023-05-10T14:25:32;11.82;;;9.02;;
2562;SDS011;1291;51.420;6.970;2023-05-10T14:28:00;9.27;;;8.15;;
2562;SDS011;1291;51.420;6.970;2023-05-10T14:30:26;10.07;;;8.95;;
2562;SDS011;1291;51.420;6.970;2023-05-10T14:32:51;12.20;;;9.70;;
2562;SDS011;1291;51.420;6.970;2023-05-10T14:35:18;10.32;;;8.88;;
2562;SDS011;1291;51.420;6.970;2023-05-10T14:37:44;11.93;;;10.25;;
2562;SDS011;1291;51.420;6.970;2023-05-10T14:40:09;15.10;;;11.90;;
2562;SDS011;1291;51.420;6.970;2023-05-10T14:42:35;12.70;;;11.20;;
2562;SDS011;1291;51.420;6.970;2023-05-10T14:45:00;14.13;;;10.02;;
2562;SDS011;1291;51.420;6.970;2023-05-10T14:47:26;10.75;;;9.65;;
2562;SDS011;1291;51.420;6.970;2023-05-10T14:49:51;11.05;;;9.75;;
2562;SDS011;1291;51.420;6.970;2023-05-10T14:52:16;10.52;;;9.35;;
2562;SDS011;1291;51.420;6.970;2023-05-10T14:54:42;13.20;;;10.38;;
2562;SDS011;1291;51.420;6.970;2023-05-10T14:57:12;10.40;;;9.23;;
2562;SDS011;1291;51.420;6.970;2023-05-10T14:59:37;10.77;;;9.68;;
2562;SDS011;1291;51.420;6.970;2023-05-10T15:02:04;12.18;;;10.82;;
2562;SDS011;1291;51.420;6.970;2023-05-10T15:04:29;14.75;;;11.98;;
2562;SDS011;1291;51.420;6.970;2023-05-10T15:06:55;15.50;;;12.38;;
2562;SDS011;1291;51.420;6.970;2023-05-10T15:09:24;15.95;;;12.45;;
2562;SDS011;1291;51.420;6.970;2023-05-10T15:11:49;15.35;;;12.60;;
2562;SDS011;1291;51.420;6.970;2023-05-10T15:14:15;14.30;;;12.80;;
2562;SDS011;1291;51.420;6.970;2023-05-10T15:16:40;14.90;;;13.30;;
2562;SDS011;1291;51.420;6.970;2023-05-10T15:19:05;14.65;;;12.30;;
2562;SDS011;1291;51.420;6.970;2023-05-10T15:21:31;16.75;;;13.48;;
2562;SDS011;1291;51.420;6.970;2023-05-10T15:24:00;15.40;;;13.23;;
2562;SDS011;1291;51.420;6.970;2023-05-10T15:26:25;16.00;;;13.55;;
2562;SDS011;1291;51.420;6.970;2023-05-10T15:28:51;14.95;;;13.35;;
2562;SDS011;1291;51.420;6.970;2023-05-10T15:31:17;17.25;;;14.05;;
2562;SDS011;1291;51.420;6.970;2023-05-10T15:33:42;16.15;;;13.00;;